sensor_id;sensor_type;location;lat;lon;timestamp;temperature;humidity
34279;DHT22;20538;51.528;9.942;2023-03-01T00:01:24;-3.10;99.90
34279;DHT22;20538;51.528;9.942;2023-03-01T00:03:51;-3.10;99.90
34279;DHT22;20538;51.528;9.942;2023-03-01T00:06:17;-3.00;99.90
34279;DHT22;20538;51.528;9.942;2023-03-01T00:08:43;-3.10;99.90
34279;DHT22;20538;51.528;9.942;2023-03-01T00:13:37;-3.10;99.90
34279;DHT22;20538;51.528;9.942;2023-03-01T00:16:09;-3.10;99.90
34279;DHT22;20538;51.528;9.942;2023-03-01T00:18:35;-3.10;99.90
34279;DHT22;20538;51.528;9.942;2023-03-01T00:21:00;-3.20;99.90
34279;DHT22;20538;51.528;9.942;2023-03-01T00:23:27;-3.00;99.90
34279;DHT22;20538;51.528;9.942;2023-03-01T00:25:53;-3.00;99.90
34279;DHT22;20538;51.528;9.942;2023-03-01T00:28:19;-3.10;99.90
34279;DHT22;20538;51.528;9.942;2023-03-01T00:30:45;-3.10;99.90
34279;DHT22;20538;51.528;9.942;2023-03-01T00:33:11;-3.10;99.90
34279;DHT22;20538;51.528;9.942;2023-03-01T00:35:36;-3.10;99.90
34279;DHT22;20538;51.528;9.942;2023-03-01T00:38:03;-3.20;99.90
34279;DHT22;20538;51.528;9.942;2023-03-01T00:40:31;-3.20;99.90
34279;DHT22;20538;51.528;9.942;2023-03-01T00:42:57;-3.20;99.90
34279;DHT22;20538;51.528;9.942;2023-03-01T00:45:24;-3.10;99.90
34279;DHT22;20538;51.528;9.942;2023-03-01T00:47:50;-3.00;99.90
34279;DHT22;20538;51.528;9.942;2023-03-01T00:50:16;-3.10;99.90
34279;DHT22;20538;51.528;9.942;2023-03-01T00:52:42;-3.00;99.90
34279;DHT22;20538;51.528;9.942;2023-03-01T00:55:08;-3.00;99.90
34279;DHT22;20538;51.528;9.942;2023-03-01T00:57:34;-3.00;99.90
34279;DHT22;20538;51.528;9.942;2023-03-01T00:59:59;-3.10;99.90
34279;DHT22;20538;51.528;9.942;2023-03-01T01:02:26;-3.10;99.90
34279;DHT22;20538;51.528;9.942;2023-03-01T01:04:51;-3.10;99.90
34279;DHT22;20538;51.528;9.942;2023-03-01T01:07:17;-3.10;99.90
34279;DHT22;20538;51.528;9.942;2023-03-01T01:09:45;-3.20;99.90
34279;DHT22;20538;51.528;9.942;2023-03-01T01:12:11;-3.30;99.90
34279;DHT22;20538;51.528;9.942;2023-03-01T01:14:39;-3.30;99.90
34279;DHT22;20538;51.528;9.942;2023-03-01T01:17:05;-3.30;99.90
34279;DHT22;20538;51.528;9.942;2023-03-01T01:19:31;-3.40;99.90
34279;DHT22;20538;51.528;9.942;2023-03-01T01:21:56;-3.50;99.90
34279;DHT22;20538;51.528;9.942;2023-03-01T01:24:22;-3.60;99.90
34279;DHT22;20538;51.528;9.942;2023-03-01T01:26:48;-3.60;99.90
34279;DHT22;20538;51.528;9.942;2023-03-01T01:29:14;-3.60;99.90
34279;DHT22;20538;51.528;9.942;2023-03-01T01:31:41;-3.60;99.90
34279;DHT22;20538;51.528;9.942;2023-03-01T01:34:12;-3.60;99.90
34279;DHT22;20538;51.528;9.942;2023-03-01T01:36:41;-3.70;99.90
34279;DHT22;20538;51.528;9.942;2023-03-01T01:39:07;-3.70;99.90
34279;DHT22;20538;51.528;9.942;2023-03-01T01:41:33;-3.70;99.90
34279;DHT22;20538;51.528;9.942;2023-03-01T01:44:19;-3.80;99.90
34279;DHT22;20538;51.528;9.942;2023-03-01T01:47:01;-3.80;99.90
34279;DHT22;20538;51.528;9.942;2023-03-01T01:49:44;-3.90;99.90
34279;DHT22;20538;51.528;9.942;2023-03-01T01:52:14;-3.90;99.90
34279;DHT22;20538;51.528;9.942;2023-03-01T01:54:51;-4.00;99.90
34279;DHT22;20538;51.528;9.942;2023-03-01T01:57:26;-3.90;99.90
34279;DHT22;20538;51.528;9.942;2023-03-01T01:59:57;-3.70;99.90
34279;DHT22;20538;51.528;9.942;2023-03-01T02:02:24;-3.80;99.90
34279;DHT22;20538;51.528;9.942;2023-03-01T02:04:54;-3.90;99.90
34279;DHT22;20538;51.528;9.942;2023-03-01T02:07:24;-3.90;99.90
34279;DHT22;20538;51.528;9.942;2023-03-01T02:09:52;-3.90;99.90
34279;DHT22;20538;51.528;9.942;2023-03-01T02:12:21;-3.80;99.90
34279;DHT22;20538;51.528;9.942;2023-03-01T02:14:48;-3.90;99.90
34279;DHT22;20538;51.528;9.942;2023-03-01T02:17:17;-3.90;99.90
34279;DHT22;20538;51.528;9.942;2023-03-01T02:22:37;-3.80;99.90
34279;DHT22;20538;51.528;9.942;2023-03-01T02:30:41;-4.00;99.90
34279;DHT22;20538;51.528;9.942;2023-03-01T02:33:27;-4.10;99.90
34279;DHT22;20538;51.528;9.942;2023-03-01T02:35:54;-4.00;99.90
34279;DHT22;20538;51.528;9.942;2023-03-01T02:38:21;-4.10;99.90
34279;DHT22;20538;51.528;9.942;2023-03-01T02:40:49;-4.10;99.90
34279;DHT22;20538;51.528;9.942;2023-03-01T02:43:16;-4.10;99.90
34279;DHT22;20538;51.528;9.942;2023-03-01T02:45:52;-4.10;99.90
34279;DHT22;20538;51.528;9.942;2023-03-01T02:48:19;-4.20;99.90
34279;DHT22;20538;51.528;9.942;2023-03-01T02:56:05;-4.30;99.90
34279;DHT22;20538;51.528;9.942;2023-03-01T02:58:31;-4.30;99.90
34279;DHT22;20538;51.528;9.942;2023-03-01T03:00:56;-4.30;99.90
34279;DHT22;20538;51.528;9.942;2023-03-01T03:03:22;-4.30;99.90
34279;DHT22;20538;51.528;9.942;2023-03-01T03:05:48;-4.30;99.90
34279;DHT22;20538;51.528;9.942;2023-03-01T03:08:14;-4.20;99.90
34279;DHT22;20538;51.528;9.942;2023-03-01T03:10:42;-4.20;99.90
34279;DHT22;20538;51.528;9.942;2023-03-01T03:13:11;-4.30;99.90
34279;DHT22;20538;51.528;9.942;2023-03-01T03:15:37;-4.30;99.90
34279;DHT22;20538;51.528;9.942;2023-03-01T03:18:07;-4.40;99.90
34279;DHT22;20538;51.528;9.942;2023-03-01T03:20:34;-4.40;99.90
34279;DHT22;20538;51.528;9.942;2023-03-01T03:23:00;-4.30;99.90
34279;DHT22;20538;51.528;9.942;2023-03-01T03:25:27;-4.40;99.90
34279;DHT22;20538;51.528;9.942;2023-03-01T03:27:54;-4.30;99.90
34279;DHT22;20538;51.528;9.942;2023-03-01T03:30:27;-4.40;99.90
34279;DHT22;20538;51.528;9.942;2023-03-01T03:32:53;-4.40;99.90
34279;DHT22;20538;51.528;9.942;2023-03-01T03:37:51;-4.30;99.90
34279;DHT22;20538;51.528;9.942;2023-03-01T03:40:37;-4.50;99.90
34279;DHT22;20538;51.528;9.942;2023-03-01T03:43:05;-4.40;99.90
34279;DHT22;20538;51.528;9.942;2023-03-01T03:45:31;-4.50;99.90
34279;DHT22;20538;51.528;9.942;2023-03-01T03:47:59;-4.60;99.90
34279;DHT22;20538;51.528;9.942;2023-03-01T03:50:24;-4.50;99.90
34279;DHT22;20538;51.528;9.942;2023-03-01T03:52:50;-4.60;99.90
34279;DHT22;20538;51.528;9.942;2023-03-01T03:55:16;-4.60;99.90
34279;DHT22;20538;51.528;9.942;2023-03-01T03:57:45;-4.60;99.90
34279;DHT22;20538;51.528;9.942;2023-03-01T04:00:18;-4.60;99.90
34279;DHT22;20538;51.528;9.942;2023-03-01T04:02:45;-4.60;99.90
34279;DHT22;20538;51.528;9.942;2023-03-01T04:05:13;-4.60;99.90
34279;DHT22;20538;51.528;9.942;2023-03-01T04:07:40;-4.60;99.90
34279;DHT22;20538;51.528;9.942;2023-03-01T04:10:08;-4.70;99.90
34279;DHT22;20538;51.528;9.942;2023-03-01T04:12:34;-4.60;99.90
34279;DHT22;20538;51.528;9.942;2023-03-01T04:15:01;-4.70;99.90
34279;DHT22;20538;51.528;9.942;2023-03-01T04:17:27;-4.60;99.90
34279;DHT22;20538;51.528;9.942;2023-03-01T04:19:52;-4.60;99.90
34279;DHT22;20538;51.528;9.942;2023-03-01T04:22:18;-4.70;99.90
34279;DHT22;20538;51.528;9.942;2023-03-01T04:24:44;-4.60;99.90
34279;DHT22;20538;51.528;9.942;2023-03-01T04:27:10;-4.60;99.90
34279;DHT22;20538;51.528;9.942;2023-03-01T04:29:36;-4.50;99.90
34279;DHT22;20538;51.528;9.942;2023-03-01T04:32:02;-4.60;99.90
34279;DHT22;20538;51.528;9.942;2023-03-01T04:34:29;-4.60;99.90
34279;DHT22;20538;51.528;9.942;2023-03-01T04:36:54;-4.60;99.90
34279;DHT22;20538;51.528;9.942;2023-03-01T04:39:20;-4.60;99.90
34279;DHT22;20538;51.528;9.942;2023-03-01T04:41:46;-4.60;99.90
34279;DHT22;20538;51.528;9.942;2023-03-01T04:44:11;-4.70;99.90
34279;DHT22;20538;51.528;9.942;2023-03-01T04:46:38;-4.70;99.90
34279;DHT22;20538;51.528;9.942;2023-03-01T04:49:04;-4.70;99.90
34279;DHT22;20538;51.528;9.942;2023-03-01T04:51:30;-4.70;99.90
34279;DHT22;20538;51.528;9.942;2023-03-01T04:53:58;-4.80;99.90
34279;DHT22;20538;51.528;9.942;2023-03-01T04:56:24;-4.90;99.90
34279;DHT22;20538;51.528;9.942;2023-03-01T04:58:49;-4.90;99.90
34279;DHT22;20538;51.528;9.942;2023-03-01T05:01:19;-4.90;99.90
34279;DHT22;20538;51.528;9.942;2023-03-01T05:03:48;-4.90;99.90
34279;DHT22;20538;51.528;9.942;2023-03-01T05:06:14;-4.90;99.90
34279;DHT22;20538;51.528;9.942;2023-03-01T05:08:41;-4.90;99.90
34279;DHT22;20538;51.528;9.942;2023-03-01T05:11:10;-5.00;99.90
34279;DHT22;20538;51.528;9.942;2023-03-01T05:13:37;-5.00;99.90
34279;DHT22;20538;51.528;9.942;2023-03-01T05:16:04;-5.00;99.90
34279;DHT22;20538;51.528;9.942;2023-03-01T05:18:31;-5.10;99.90
34279;DHT22;20538;51.528;9.942;2023-03-01T05:21:11;-5.10;99.90
34279;DHT22;20538;51.528;9.942;2023-03-01T05:23:36;-5.10;99.90
34279;DHT22;20538;51.528;9.942;2023-03-01T05:26:04;-5.10;99.90
34279;DHT22;20538;51.528;9.942;2023-03-01T05:28:31;-5.10;99.90
34279;DHT22;20538;51.528;9.942;2023-03-01T05:30:57;-5.20;99.90
34279;DHT22;20538;51.528;9.942;2023-03-01T05:33:24;-5.20;99.90
34279;DHT22;20538;51.528;9.942;2023-03-01T05:35:50;-5.20;99.90
34279;DHT22;20538;51.528;9.942;2023-03-01T05:38:17;-5.00;99.90
34279;DHT22;20538;51.528;9.942;2023-03-01T05:40:45;-5.10;99.90
34279;DHT22;20538;51.528;9.942;2023-03-01T05:43:12;-5.10;99.90
34279;DHT22;20538;51.528;9.942;2023-03-01T05:45:38;-5.10;99.90
34279;DHT22;20538;51.528;9.942;2023-03-01T05:48:05;-5.10;99.90
34279;DHT22;20538;51.528;9.942;2023-03-01T05:50:36;-5.10;99.90
34279;DHT22;20538;51.528;9.942;2023-03-01T05:53:15;-5.20;99.90
34279;DHT22;20538;51.528;9.942;2023-03-01T05:55:41;-5.20;99.90
34279;DHT22;20538;51.528;9.942;2023-03-01T05:58:11;-5.20;99.90
34279;DHT22;20538;51.528;9.942;2023-03-01T06:00:37;-5.10;99.90
34279;DHT22;20538;51.528;9.942;2023-03-01T06:03:03;-5.10;99.90
34279;DHT22;20538;51.528;9.942;2023-03-01T06:05:29;-5.20;99.90
34279;DHT22;20538;51.528;9.942;2023-03-01T06:07:58;-5.20;99.90
34279;DHT22;20538;51.528;9.942;2023-03-01T06:10:24;-5.20;99.90
34279;DHT22;20538;51.528;9.942;2023-03-01T06:12:49;-5.20;99.90
34279;DHT22;20538;51.528;9.942;2023-03-01T06:15:16;-5.20;99.90
34279;DHT22;20538;51.528;9.942;2023-03-01T06:17:43;-5.10;99.90
34279;DHT22;20538;51.528;9.942;2023-03-01T06:20:20;-5.10;99.90
34279;DHT22;20538;51.528;9.942;2023-03-01T06:22:47;-5.10;99.90
34279;DHT22;20538;51.528;9.942;2023-03-01T06:25:15;-5.10;99.90
34279;DHT22;20538;51.528;9.942;2023-03-01T06:27:41;-5.10;99.90
34279;DHT22;20538;51.528;9.942;2023-03-01T06:30:08;-5.10;99.90
34279;DHT22;20538;51.528;9.942;2023-03-01T06:32:36;-5.10;99.90
34279;DHT22;20538;51.528;9.942;2023-03-01T06:35:03;-5.00;99.90
34279;DHT22;20538;51.528;9.942;2023-03-01T06:37:29;-4.90;99.90
34279;DHT22;20538;51.528;9.942;2023-03-01T06:39:54;-4.80;99.90
34279;DHT22;20538;51.528;9.942;2023-03-01T06:42:20;-4.90;99.90
34279;DHT22;20538;51.528;9.942;2023-03-01T06:44:46;-4.80;99.90
34279;DHT22;20538;51.528;9.942;2023-03-01T06:47:12;-4.80;99.90
34279;DHT22;20538;51.528;9.942;2023-03-01T06:49:38;-4.80;99.90
34279;DHT22;20538;51.528;9.942;2023-03-01T06:52:03;-4.70;99.90
34279;DHT22;20538;51.528;9.942;2023-03-01T06:54:29;-4.60;99.90
34279;DHT22;20538;51.528;9.942;2023-03-01T06:56:55;-4.60;99.90
34279;DHT22;20538;51.528;9.942;2023-03-01T06:59:20;-4.50;99.90
34279;DHT22;20538;51.528;9.942;2023-03-01T07:01:46;-4.50;99.90
34279;DHT22;20538;51.528;9.942;2023-03-01T07:04:13;-4.40;99.90
34279;DHT22;20538;51.528;9.942;2023-03-01T07:06:39;-4.40;99.90
34279;DHT22;20538;51.528;9.942;2023-03-01T07:09:04;-4.40;99.90
34279;DHT22;20538;51.528;9.942;2023-03-01T07:11:30;-4.40;99.90
34279;DHT22;20538;51.528;9.942;2023-03-01T07:13:55;-4.40;99.90
34279;DHT22;20538;51.528;9.942;2023-03-01T07:16:21;-4.40;99.90
34279;DHT22;20538;51.528;9.942;2023-03-01T07:18:47;-4.30;99.90
34279;DHT22;20538;51.528;9.942;2023-03-01T07:21:14;-4.20;99.90
34279;DHT22;20538;51.528;9.942;2023-03-01T07:23:40;-4.20;99.90
34279;DHT22;20538;51.528;9.942;2023-03-01T07:26:06;-4.00;99.90
34279;DHT22;20538;51.528;9.942;2023-03-01T07:28:32;-4.00;99.90
34279;DHT22;20538;51.528;9.942;2023-03-01T07:31:04;-3.80;99.90
34279;DHT22;20538;51.528;9.942;2023-03-01T07:33:30;-3.80;99.90
34279;DHT22;20538;51.528;9.942;2023-03-01T07:36:00;-3.70;99.90
34279;DHT22;20538;51.528;9.942;2023-03-01T07:38:28;-3.50;99.90
34279;DHT22;20538;51.528;9.942;2023-03-01T07:40:58;-3.50;99.90
34279;DHT22;20538;51.528;9.942;2023-03-01T07:43:24;-3.40;99.90
34279;DHT22;20538;51.528;9.942;2023-03-01T07:45:50;-3.30;99.90
34279;DHT22;20538;51.528;9.942;2023-03-01T07:48:15;-3.30;99.90
34279;DHT22;20538;51.528;9.942;2023-03-01T07:50:41;-3.30;99.90
34279;DHT22;20538;51.528;9.942;2023-03-01T07:53:07;-3.10;99.90
34279;DHT22;20538;51.528;9.942;2023-03-01T07:55:32;-2.90;99.90
34279;DHT22;20538;51.528;9.942;2023-03-01T07:57:58;-3.00;99.90
34279;DHT22;20538;51.528;9.942;2023-03-01T08:00:23;-2.90;99.90
34279;DHT22;20538;51.528;9.942;2023-03-01T08:02:49;-2.90;99.90
34279;DHT22;20538;51.528;9.942;2023-03-01T08:05:15;-2.70;99.90
34279;DHT22;20538;51.528;9.942;2023-03-01T08:07:43;-2.60;99.90
34279;DHT22;20538;51.528;9.942;2023-03-01T08:10:10;-2.40;99.90
34279;DHT22;20538;51.528;9.942;2023-03-01T08:12:35;-2.30;99.90
34279;DHT22;20538;51.528;9.942;2023-03-01T08:15:01;-2.20;99.90
34279;DHT22;20538;51.528;9.942;2023-03-01T08:17:30;-2.20;99.90
34279;DHT22;20538;51.528;9.942;2023-03-01T08:19:55;-2.20;99.90
34279;DHT22;20538;51.528;9.942;2023-03-01T08:22:21;-2.10;99.90
34279;DHT22;20538;51.528;9.942;2023-03-01T08:24:47;-2.00;99.90
34279;DHT22;20538;51.528;9.942;2023-03-01T08:27:14;-1.90;99.90
34279;DHT22;20538;51.528;9.942;2023-03-01T08:29:40;-1.90;99.90
34279;DHT22;20538;51.528;9.942;2023-03-01T08:32:06;-1.90;99.90
34279;DHT22;20538;51.528;9.942;2023-03-01T08:34:32;-1.70;99.90
34279;DHT22;20538;51.528;9.942;2023-03-01T08:37:01;-1.70;99.90
34279;DHT22;20538;51.528;9.942;2023-03-01T08:39:27;-1.50;99.90
34279;DHT22;20538;51.528;9.942;2023-03-01T08:41:52;-1.50;99.90
34279;DHT22;20538;51.528;9.942;2023-03-01T08:44:21;-1.40;99.90
34279;DHT22;20538;51.528;9.942;2023-03-01T08:46:47;-1.30;99.90
34279;DHT22;20538;51.528;9.942;2023-03-01T08:49:16;-1.40;99.90
34279;DHT22;20538;51.528;9.942;2023-03-01T08:51:44;-1.00;99.90
34279;DHT22;20538;51.528;9.942;2023-03-01T08:54:12;-0.80;99.90
34279;DHT22;20538;51.528;9.942;2023-03-01T08:56:38;-0.70;99.90
34279;DHT22;20538;51.528;9.942;2023-03-01T08:59:04;-0.60;99.90
34279;DHT22;20538;51.528;9.942;2023-03-01T09:01:30;-0.60;99.90
34279;DHT22;20538;51.528;9.942;2023-03-01T09:03:55;-0.50;99.90
34279;DHT22;20538;51.528;9.942;2023-03-01T09:06:21;-0.40;99.90
34279;DHT22;20538;51.528;9.942;2023-03-01T09:08:48;-0.20;99.90
34279;DHT22;20538;51.528;9.942;2023-03-01T09:11:18;-0.20;99.90
34279;DHT22;20538;51.528;9.942;2023-03-01T09:13:46;0.00;99.90
34279;DHT22;20538;51.528;9.942;2023-03-01T09:16:13;0.10;99.90
34279;DHT22;20538;51.528;9.942;2023-03-01T09:18:39;0.20;99.90
34279;DHT22;20538;51.528;9.942;2023-03-01T09:21:10;0.30;99.90
34279;DHT22;20538;51.528;9.942;2023-03-01T09:23:38;0.40;99.90
34279;DHT22;20538;51.528;9.942;2023-03-01T09:26:06;0.50;99.90
34279;DHT22;20538;51.528;9.942;2023-03-01T09:28:32;0.60;99.90
34279;DHT22;20538;51.528;9.942;2023-03-01T09:30:58;0.70;99.90
34279;DHT22;20538;51.528;9.942;2023-03-01T09:33:25;0.80;99.90
34279;DHT22;20538;51.528;9.942;2023-03-01T09:35:59;0.90;99.90
34279;DHT22;20538;51.528;9.942;2023-03-01T09:38:26;1.00;99.90
34279;DHT22;20538;51.528;9.942;2023-03-01T09:40:52;1.20;99.90
34279;DHT22;20538;51.528;9.942;2023-03-01T09:43:52;1.20;99.90
34279;DHT22;20538;51.528;9.942;2023-03-01T09:46:21;1.40;99.90
34279;DHT22;20538;51.528;9.942;2023-03-01T09:48:59;1.50;99.90
34279;DHT22;20538;51.528;9.942;2023-03-01T09:51:34;1.60;99.90
34279;DHT22;20538;51.528;9.942;2023-03-01T09:54:04;1.80;99.90
34279;DHT22;20538;51.528;9.942;2023-03-01T09:56:40;1.90;99.90
34279;DHT22;20538;51.528;9.942;2023-03-01T09:59:21;1.80;99.90
34279;DHT22;20538;51.528;9.942;2023-03-01T10:04:45;2.50;99.90
34279;DHT22;20538;51.528;9.942;2023-03-01T10:09:43;2.50;99.90
34279;DHT22;20538;51.528;9.942;2023-03-01T10:12:14;2.60;99.90
34279;DHT22;20538;51.528;9.942;2023-03-01T10:22:41;3.00;99.90
34279;DHT22;20538;51.528;9.942;2023-03-01T10:25:11;3.10;99.90
34279;DHT22;20538;51.528;9.942;2023-03-01T10:28:02;3.10;99.90
34279;DHT22;20538;51.528;9.942;2023-03-01T10:30:38;3.10;99.90
34279;DHT22;20538;51.528;9.942;2023-03-01T10:33:35;3.30;99.90
34279;DHT22;20538;51.528;9.942;2023-03-01T10:36:02;3.30;99.90
34279;DHT22;20538;51.528;9.942;2023-03-01T10:38:31;3.20;99.90
34279;DHT22;20538;51.528;9.942;2023-03-01T10:41:05;2.90;99.90
34279;DHT22;20538;51.528;9.942;2023-03-01T10:44:01;3.10;99.90
34279;DHT22;20538;51.528;9.942;2023-03-01T10:46:37;3.20;99.90
34279;DHT22;20538;51.528;9.942;2023-03-01T10:51:33;2.80;99.90
34279;DHT22;20538;51.528;9.942;2023-03-01T10:53:59;2.90;99.90
34279;DHT22;20538;51.528;9.942;2023-03-01T10:56:24;3.00;99.90
34279;DHT22;20538;51.528;9.942;2023-03-01T10:59:03;3.20;99.90
34279;DHT22;20538;51.528;9.942;2023-03-01T11:01:35;3.50;99.90
34279;DHT22;20538;51.528;9.942;2023-03-01T11:06:34;3.50;99.90
34279;DHT22;20538;51.528;9.942;2023-03-01T11:09:18;3.40;99.90
34279;DHT22;20538;51.528;9.942;2023-03-01T11:11:45;3.50;99.90
34279;DHT22;20538;51.528;9.942;2023-03-01T11:14:37;3.60;99.90
34279;DHT22;20538;51.528;9.942;2023-03-01T11:17:04;3.60;99.90
34279;DHT22;20538;51.528;9.942;2023-03-01T11:19:31;3.70;99.90
34279;DHT22;20538;51.528;9.942;2023-03-01T11:22:18;3.70;99.90
34279;DHT22;20538;51.528;9.942;2023-03-01T11:24:49;3.80;99.90
34279;DHT22;20538;51.528;9.942;2023-03-01T11:27:21;3.70;99.90
34279;DHT22;20538;51.528;9.942;2023-03-01T11:32:40;4.00;99.90
34279;DHT22;20538;51.528;9.942;2023-03-01T11:35:26;4.00;99.90
34279;DHT22;20538;51.528;9.942;2023-03-01T11:40:58;3.90;99.90
34279;DHT22;20538;51.528;9.942;2023-03-01T11:43:37;4.00;99.90
34279;DHT22;20538;51.528;9.942;2023-03-01T11:49:41;4.40;99.90
34279;DHT22;20538;51.528;9.942;2023-03-01T11:55:29;4.40;99.90
34279;DHT22;20538;51.528;9.942;2023-03-01T12:06:19;4.60;99.90
34279;DHT22;20538;51.528;9.942;2023-03-01T12:08:52;4.50;99.90
34279;DHT22;20538;51.528;9.942;2023-03-01T12:20:20;4.80;99.90
34279;DHT22;20538;51.528;9.942;2023-03-01T12:25:18;4.70;99.90
34279;DHT22;20538;51.528;9.942;2023-03-01T12:27:59;4.80;99.90
34279;DHT22;20538;51.528;9.942;2023-03-01T12:35:42;5.10;99.90
34279;DHT22;20538;51.528;9.942;2023-03-01T12:51:33;5.30;99.90
34279;DHT22;20538;51.528;9.942;2023-03-01T12:54:05;5.10;99.90
34279;DHT22;20538;51.528;9.942;2023-03-01T12:56:36;5.20;99.90
34279;DHT22;20538;51.528;9.942;2023-03-01T13:10:21;5.50;99.90
34279;DHT22;20538;51.528;9.942;2023-03-01T13:12:51;5.60;99.90
34279;DHT22;20538;51.528;9.942;2023-03-01T13:17:54;5.40;99.90
34279;DHT22;20538;51.528;9.942;2023-03-01T13:21:08;5.30;99.90
34279;DHT22;20538;51.528;9.942;2023-03-01T13:31:09;5.60;99.90
34279;DHT22;20538;51.528;9.942;2023-03-01T13:36:08;5.70;99.90
34279;DHT22;20538;51.528;9.942;2023-03-01T13:47:08;5.60;99.90
34279;DHT22;20538;51.528;9.942;2023-03-01T13:49:50;5.60;99.90
34279;DHT22;20538;51.528;9.942;2023-03-01T13:52:48;5.70;99.90
34279;DHT22;20538;51.528;9.942;2023-03-01T13:57:40;5.60;99.90
34279;DHT22;20538;51.528;9.942;2023-03-01T14:00:24;5.80;99.90
34279;DHT22;20538;51.528;9.942;2023-03-01T14:03:20;5.70;99.90
34279;DHT22;20538;51.528;9.942;2023-03-01T14:06:06;5.70;99.90
34279;DHT22;20538;51.528;9.942;2023-03-01T14:08:34;5.70;99.90
34279;DHT22;20538;51.528;9.942;2023-03-01T14:16:53;5.80;99.90
34279;DHT22;20538;51.528;9.942;2023-03-01T14:19:23;5.80;99.90
34279;DHT22;20538;51.528;9.942;2023-03-01T14:24:50;5.90;99.90
34279;DHT22;20538;51.528;9.942;2023-03-01T14:27:17;5.80;99.90
34279;DHT22;20538;51.528;9.942;2023-03-01T14:29:44;5.90;99.90
34279;DHT22;20538;51.528;9.942;2023-03-01T14:32:25;6.00;99.90
34279;DHT22;20538;51.528;9.942;2023-03-01T14:34:52;5.80;99.90
34279;DHT22;20538;51.528;9.942;2023-03-01T14:37:33;5.80;99.90
34279;DHT22;20538;51.528;9.942;2023-03-01T14:40:02;6.00;99.90
34279;DHT22;20538;51.528;9.942;2023-03-01T14:42:31;6.00;99.90
34279;DHT22;20538;51.528;9.942;2023-03-01T14:45:00;6.00;99.90
34279;DHT22;20538;51.528;9.942;2023-03-01T14:47:33;6.00;99.90
34279;DHT22;20538;51.528;9.942;2023-03-01T14:50:02;6.10;99.90
34279;DHT22;20538;51.528;9.942;2023-03-01T14:52:38;6.10;99.90
34279;DHT22;20538;51.528;9.942;2023-03-01T14:55:13;6.10;99.90
34279;DHT22;20538;51.528;9.942;2023-03-01T14:57:50;6.10;99.90
34279;DHT22;20538;51.528;9.942;2023-03-01T15:00:19;6.00;99.90
34279;DHT22;20538;51.528;9.942;2023-03-01T15:02:47;6.10;99.90
34279;DHT22;20538;51.528;9.942;2023-03-01T15:05:15;6.30;99.90
34279;DHT22;20538;51.528;9.942;2023-03-01T15:07:43;6.20;99.90
34279;DHT22;20538;51.528;9.942;2023-03-01T15:10:28;6.10;99.90
34279;DHT22;20538;51.528;9.942;2023-03-01T15:12:54;6.20;99.90
34279;DHT22;20538;51.528;9.942;2023-03-01T15:15:32;6.20;99.90
34279;DHT22;20538;51.528;9.942;2023-03-01T15:18:12;6.20;99.90
34279;DHT22;20538;51.528;9.942;2023-03-01T15:20:38;6.40;99.90
34279;DHT22;20538;51.528;9.942;2023-03-01T15:23:04;6.30;99.90
34279;DHT22;20538;51.528;9.942;2023-03-01T15:25:31;6.20;99.90
34279;DHT22;20538;51.528;9.942;2023-03-01T15:27:59;6.00;99.90
34279;DHT22;20538;51.528;9.942;2023-03-01T15:30:36;6.10;99.90
34279;DHT22;20538;51.528;9.942;2023-03-01T15:33:31;6.10;99.90
34279;DHT22;20538;51.528;9.942;2023-03-01T15:35:59;6.10;99.90
34279;DHT22;20538;51.528;9.942;2023-03-01T15:43:49;5.90;99.90
34279;DHT22;20538;51.528;9.942;2023-03-01T15:46:21;5.80;99.90
34279;DHT22;20538;51.528;9.942;2023-03-01T15:48:52;5.90;99.90
34279;DHT22;20538;51.528;9.942;2023-03-01T15:51:22;5.90;99.90
34279;DHT22;20538;51.528;9.942;2023-03-01T15:53:51;5.70;99.90
34279;DHT22;20538;51.528;9.942;2023-03-01T15:56:18;5.70;99.90
34279;DHT22;20538;51.528;9.942;2023-03-01T15:58:44;5.70;99.90
34279;DHT22;20538;51.528;9.942;2023-03-01T16:01:14;5.70;99.90
34279;DHT22;20538;51.528;9.942;2023-03-01T16:03:40;5.70;99.90
34279;DHT22;20538;51.528;9.942;2023-03-01T16:06:09;5.80;99.90
34279;DHT22;20538;51.528;9.942;2023-03-01T16:08:35;5.80;99.90
34279;DHT22;20538;51.528;9.942;2023-03-01T16:11:02;5.70;99.90
34279;DHT22;20538;51.528;9.942;2023-03-01T16:13:30;5.70;99.90
34279;DHT22;20538;51.528;9.942;2023-03-01T16:15:57;5.70;99.90
34279;DHT22;20538;51.528;9.942;2023-03-01T16:18:22;5.70;99.90
34279;DHT22;20538;51.528;9.942;2023-03-01T16:20:48;5.60;99.90
34279;DHT22;20538;51.528;9.942;2023-03-01T16:23:14;5.50;99.90
34279;DHT22;20538;51.528;9.942;2023-03-01T16:25:40;5.40;99.90
34279;DHT22;20538;51.528;9.942;2023-03-01T16:28:06;5.30;99.90
34279;DHT22;20538;51.528;9.942;2023-03-01T16:30:36;5.40;99.90
34279;DHT22;20538;51.528;9.942;2023-03-01T16:33:02;5.10;99.90
34279;DHT22;20538;51.528;9.942;2023-03-01T16:35:32;5.00;99.90
34279;DHT22;20538;51.528;9.942;2023-03-01T16:37:59;5.20;99.90
34279;DHT22;20538;51.528;9.942;2023-03-01T16:40:28;5.10;99.90
34279;DHT22;20538;51.528;9.942;2023-03-01T16:42:56;5.10;99.90
34279;DHT22;20538;51.528;9.942;2023-03-01T16:45:25;5.10;99.90
34279;DHT22;20538;51.528;9.942;2023-03-01T16:47:52;4.90;99.90
34279;DHT22;20538;51.528;9.942;2023-03-01T16:50:18;4.90;99.90
34279;DHT22;20538;51.528;9.942;2023-03-01T16:52:44;4.90;99.90
34279;DHT22;20538;51.528;9.942;2023-03-01T16:55:10;4.90;99.90
34279;DHT22;20538;51.528;9.942;2023-03-01T16:57:37;4.90;99.90
34279;DHT22;20538;51.528;9.942;2023-03-01T17:00:05;4.70;99.90
34279;DHT22;20538;51.528;9.942;2023-03-01T17:02:36;4.70;99.90
34279;DHT22;20538;51.528;9.942;2023-03-01T17:05:02;4.50;99.90
34279;DHT22;20538;51.528;9.942;2023-03-01T17:07:28;4.40;99.90
34279;DHT22;20538;51.528;9.942;2023-03-01T17:09:54;4.30;99.90
34279;DHT22;20538;51.528;9.942;2023-03-01T17:12:20;4.30;99.90
34279;DHT22;20538;51.528;9.942;2023-03-01T17:14:45;4.20;99.90
34279;DHT22;20538;51.528;9.942;2023-03-01T17:17:11;4.10;99.90
34279;DHT22;20538;51.528;9.942;2023-03-01T17:19:37;4.10;99.90
34279;DHT22;20538;51.528;9.942;2023-03-01T17:22:07;3.90;99.90
34279;DHT22;20538;51.528;9.942;2023-03-01T17:24:35;3.90;99.90
34279;DHT22;20538;51.528;9.942;2023-03-01T17:27:01;3.80;99.90
34279;DHT22;20538;51.528;9.942;2023-03-01T17:29:27;3.80;99.90
34279;DHT22;20538;51.528;9.942;2023-03-01T17:31:53;3.80;99.90
34279;DHT22;20538;51.528;9.942;2023-03-01T17:34:22;3.70;99.90
34279;DHT22;20538;51.528;9.942;2023-03-01T17:36:49;3.70;99.90
34279;DHT22;20538;51.528;9.942;2023-03-01T17:39:17;3.60;99.90
34279;DHT22;20538;51.528;9.942;2023-03-01T17:41:45;3.40;99.90
34279;DHT22;20538;51.528;9.942;2023-03-01T17:44:10;3.20;99.90
34279;DHT22;20538;51.528;9.942;2023-03-01T17:46:36;3.30;99.90
34279;DHT22;20538;51.528;9.942;2023-03-01T17:49:02;3.30;99.90
34279;DHT22;20538;51.528;9.942;2023-03-01T17:51:28;3.30;99.90
34279;DHT22;20538;51.528;9.942;2023-03-01T17:53:53;3.30;99.90
34279;DHT22;20538;51.528;9.942;2023-03-01T17:56:19;3.30;99.90
34279;DHT22;20538;51.528;9.942;2023-03-01T17:58:45;3.10;99.90
34279;DHT22;20538;51.528;9.942;2023-03-01T18:01:19;3.00;99.90
34279;DHT22;20538;51.528;9.942;2023-03-01T18:03:45;2.90;99.90
34279;DHT22;20538;51.528;9.942;2023-03-01T18:06:13;2.80;99.90